^^
MeteoGriva-Weather Station Historical Data
Daily Summary for August 27, 2020 Units:  English    Metric   Both
Daily Weekly Monthly Yearly Custom
  High: Low: Average:
Temperature: 50.4 °F 32 °F 46 °F
Dew Point: 50 °F 32 °F 45.9 °F
Humidity: 99% % 97%
Wind Speed: 3.5mph 0mph 0.1mph
Wind Gust: 7.6mph - -
Wind- - SSW
Pressure: 30.1 in 29.9 in -
Precipitation: 0.05 in    
Historical Graphs
 
 
Tabular Data for August 27, 2020
Time Temperature Dew Point Pressure Wind Wind Speed Wind Gust Humidity Rainfall Rate (Hourly) solar
00:04 45.1 °F 44.1 °F 30.1 in Calm     95.5% 0 in 0 W/m2
00:09 45.1 °F 44.1 °F 30.1 in Calm     95.4% 0 in 0 W/m2
00:14 45 °F 43.9 °F 30.1 in Calm     96% 0 in 0 W/m2
00:19 45 °F 43.9 °F 30.1 in Calm     96% 0 in 0 W/m2
00:24 45 °F 43.9 °F 30.1 in Calm     95.8% 0 in 0 W/m2
00:29 45 °F 43.7 °F 30.1 in Calm     95% 0 in 0 W/m2
00:34 45.1 °F 43.9 °F 30.1 in Calm     95% 0 in 0 W/m2
00:39 45.1 °F 44.1 °F 30.1 in Calm     96% 0 in 0 W/m2
00:44 45.1 °F 44.2 °F 30.1 in Calm     96.4% 0 in 0 W/m2
00:49 45.1 °F 44.1 °F 30.1 in Calm     96% 0 in 0 W/m2
00:54 45.5 °F 44.4 °F 30.1 in Calm     96.2% 0 in 0 W/m2
00:59 45.5 °F 44.4 °F 30.1 in Calm     96% 0 in 0 W/m2
01:04 45.3 °F 44.1 °F 30.1 in Calm     95.4% 0 in 0 W/m2
01:09 45.3 °F 44.2 °F 30.1 in Calm     96% 0 in 0 W/m2
01:14 45.1 °F 44.4 °F 30.1 in Calm     96.8% 0 in 0 W/m2
01:19 45.1 °F 44.6 °F 30.1 in Calm     98% 0 in 0 W/m2
01:24 45.3 °F 45.1 °F 30.1 in Calm     99% 0 in 0 W/m2
01:29 45.3 °F 45.1 °F 30.1 in Calm     99% 0 in 0 W/m2
01:34 45.9 °F 45.9 °F 30.1 in Calm     99% 0 in 0 W/m2
01:39 46 °F 45.9 °F 30.1 in Calm     99% 0 in 0 W/m2
01:44 46 °F 45.9 °F 30.1 in Calm     99% 0 in 0 W/m2
01:49 46 °F 45.9 °F 30.1 in Calm     99% 0 in 0 W/m2
01:54 45.9 °F 45.7 °F 30.1 in Calm     99% 0 in 0 W/m2
01:59 45.7 °F 45.5 °F 30.1 in Calm     99% 0 in 0 W/m2
02:04 45.7 °F 45.5 °F 30.1 in Calm     99% 0 in 0 W/m2
02:09 45.7 °F 45.5 °F 30.1 in Calm     99% 0 in 0 W/m2
02:14 45.7 °F 45.5 °F 30.1 in Calm     99% 0 in 0 W/m2
02:19 45.7 °F 45.5 °F 30.1 in Calm     99% 0 in 0 W/m2
02:24 45.7 °F 45.5 °F 30.1 in Calm     99% 0 in 0 W/m2
02:29 45.5 °F 45.3 °F 30.1 in Calm     99% 0 in 0 W/m2
02:34 45.5 °F 45.3 °F 30.1 in Calm     99% 0 in 0 W/m2
02:39 45.5 °F 45.3 °F 30.1 in Calm     99% 0 in 0 W/m2
02:44 45.5 °F 45.3 °F 30.1 in Calm     99% 0 in 0 W/m2
02:49 45.5 °F 45.3 °F 30.1 in Calm     99% 0 in 0 W/m2
02:54 45.7 °F 45.5 °F 30.1 in Calm     99% 0 in 0 W/m2
02:59 45.7 °F 45.5 °F 30.1 in Calm     99% 0 in 0 W/m2
03:04 45.5 °F 45.3 °F 30.1 in Calm     99% 0 in 0 W/m2
03:09 45.5 °F 45.3 °F 30.1 in Calm     99% 0 in 0 W/m2
03:14 45.7 °F 45.5 °F 30.1 in Calm     99% 0 in 0 W/m2
03:19 45.5 °F 45.3 °F 30.1 in Calm     99% 0 in 0 W/m2
03:24 45.5 °F 45.3 °F 30.1 in Calm     99% 0 in 0 W/m2
03:29 45.5 °F 45.3 °F 30.1 in Calm     99% 0 in 0 W/m2
03:34 45.3 °F 45.1 °F 30.1 in Calm     99% 0 in 0 W/m2
03:39 45.3 °F 45.1 °F 30.1 in Calm     99% 0 in 0 W/m2
03:44 45.3 °F 45.1 °F 30.1 in Calm     99% 0 in 0 W/m2
03:49 45.3 °F 45.1 °F 30.1 in Calm     99% 0 in 0 W/m2
03:54 45.5 °F 45.3 °F 30.1 in Calm     99% 0 in 0 W/m2
03:59 45.5 °F 45.3 °F 30 in Calm     99% 0 in 0 W/m2
04:04 45.5 °F 45.3 °F 30 in Calm     99% 0 in 0 W/m2
04:09 45.5 °F 45.3 °F 30 in Calm     99% 0 in 0 W/m2
04:14 45.7 °F 45.5 °F 30 in Calm     99% 0 in 0 W/m2
04:19 45.7 °F 45.5 °F 30 in Calm     99% 0 in 0 W/m2
04:24 45.7 °F 45.5 °F 30 in Calm     99% 0 in 0 W/m2
04:29 45.7 °F 45.5 °F 30 in Calm     99% 0 in 0 W/m2
04:34 45.7 °F 45.5 °F 30 in Calm     99% 0 in 0 W/m2
04:39 45.7 °F 45.5 °F 30 in Calm     99% 0 in 0 W/m2
04:44 45.7 °F 45.5 °F 30 in Calm     99% 0.07 in 0 W/m2
04:49 45.7 °F 45.5 °F 30 in Calm     99% 0.07 in 0 W/m2
04:54 45.9 °F 45.5 °F 30 in Calm     99% 0.07 in 0 W/m2
04:59 45.7 °F 45.5 °F 30 in Calm     99% 0.07 in 0 W/m2
05:04 45.7 °F 45.5 °F 30 in Calm     99% 0.07 in 0 W/m2
05:09 45.7 °F 45.5 °F 30 in Calm     99% 0.14 in 0 W/m2
05:14 45.1 °F 45 °F 30 in Calm     99% 0.07 in 0 W/m2
05:19 44.8 °F 44.6 °F 30 in Calm     99% 0 in 0 W/m2
05:24 44.8 °F 44.6 °F 30 in Calm     99% 0.07 in 0 W/m2
05:29 44.8 °F 44.6 °F 30 in Calm     99% 0.07 in 0 W/m2
05:34 44.8 °F 44.6 °F 30 in Calm     99% 0 in 0 W/m2
05:39 44.8 °F 44.6 °F 30 in Calm     99% 0 in 0 W/m2
05:44 44.8 °F 44.6 °F 30 in Calm     99% 0 in 0 W/m2
05:49 44.8 °F 44.6 °F 30 in Calm     99% 0 in 0 W/m2
05:54 44.8 °F 44.6 °F 30 in Calm     99% 0 in 0 W/m2
05:59 45 °F 44.8 °F 30 in Calm     99% 0 in 0 W/m2
06:04 45 °F 44.8 °F 30 in Calm     99% 0 in 0 W/m2
06:09 45 °F 44.8 °F 30 in Calm     99% 0 in 0 W/m2
06:14 45 °F 44.8 °F 30 in Calm     99% 0 in 0 W/m2
06:19 45 °F 44.8 °F 30 in Calm     99% 0 in 0 W/m2
06:24 45 °F 44.8 °F 30 in Calm     99% 0 in 0 W/m2
06:29 45 °F 44.8 °F 30 in Calm     99% 0 in 0 W/m2
06:34 45 °F 44.8 °F 30 in Calm     99% 0 in 0 W/m2
06:39 45 °F 44.8 °F 30 in Calm     99% 0 in 0 W/m2
06:44 45 °F 44.8 °F 30 in Calm     99% 0 in 0 W/m2
06:49 44.8 °F 44.6 °F 30 in Calm     99% 0 in 0 W/m2
06:54 44.8 °F 44.6 °F 30 in Calm     99% 0 in 0 W/m2
06:59 44.8 °F 44.6 °F 30 in Calm     99% 0 in 0 W/m2
07:04 32 °F 32 °F 30 in Calm     % 0 in W/m2
07:09 32 °F 32 °F 30 in Calm     % 0 in W/m2
07:14 32 °F 32 °F 30 in Calm     % 0 in W/m2
07:19 46 °F 45.9 °F 30 in SW 1.6 mph 7.6 mph 99% 0 in 0 W/m2
07:24 46 °F 45.9 °F 30 in South 2.2 mph 7.6 mph 99% 0 in 0 W/m2
07:29 46 °F 45.9 °F 30 in South 1.7 mph 4.9 mph 99% 0 in 0 W/m2
07:34 46.4 °F 46.2 °F 30 in South 0.3 mph 4.9 mph 99% 0 in 0 W/m2
07:39 46.9 °F 46.8 °F 30 in Calm   2.5 mph 99% 0 in 0 W/m2
07:44 46.8 °F 46.6 °F 30 in Calm     99% 0 in 0 W/m2
07:49 46.4 °F 46.2 °F 30 in Calm     99% 0 in 0 W/m2
07:54 46 °F 45.9 °F 30 in Calm     99% 0 in 0 W/m2
07:59 45.5 °F 45.3 °F 30 in Calm     99% 0 in 0 W/m2
08:04 45.5 °F 45.1 °F 30 in Calm     99% 0 in 0 W/m2
08:09 45.5 °F 45.1 °F 30 in Calm     99% 0 in 0 W/m2
08:14 45.5 °F 45.3 °F 30 in Calm     99% 0 in 0 W/m2
08:19 45.9 °F 45.7 °F 30 in SW 0.1 mph 2.5 mph 99% 0 in 0 W/m2
08:24 45.9 °F 45.7 °F 30 in SSW 0.2 mph 4.9 mph 99% 0 in 5 W/m2
08:29 46 °F 45.9 °F 30 in South 0.1 mph 2.5 mph 99% 0 in 8 W/m2
08:34 46.2 °F 46 °F 30 in Calm   2.5 mph 99% 0 in 8 W/m2
08:39 46.8 °F 46.6 °F 30 in South 0.1 mph 2.5 mph 99% 0 in 8 W/m2
08:44 46.8 °F 46.4 °F 30 in South 0.3 mph 4.9 mph 99% 0 in 17 W/m2
08:49 46.8 °F 46.6 °F 30 in South 0.2 mph 4.9 mph 99% 0 in 32 W/m2
08:54 46.9 °F 46.6 °F 30 in Calm     99% 0 in 32 W/m2
08:59 47.3 °F 47.1 °F 30 in Calm     99% 0 in 48 W/m2
09:04 47.3 °F 47.1 °F 30 in SSE 0.1 mph 2.5 mph 99% 0 in 49 W/m2
09:09 47.3 °F 47.1 °F 30 in Calm   2.5 mph 99% 0 in 46 W/m2
09:14 47.3 °F 47.1 °F 30 in Calm   2.5 mph 99% 0 in 46 W/m2
09:19 47.7 °F 47.5 °F 30 in SSW 0.6 mph 4.9 mph 99% 0 in 43 W/m2
09:24 47.7 °F 47.5 °F 30 in South 2.1 mph 4.9 mph 99% 0 in 47 W/m2
09:29 47.7 °F 47.5 °F 30 in South 2.1 mph 4.9 mph 99% 0 in 57 W/m2
09:34 47.7 °F 47.5 °F 30 in South 2.8 mph 7.6 mph 99% 0 in 73 W/m2
09:39 47.8 °F 47.7 °F 30 in South 3.5 mph 7.6 mph 99% 0 in 80 W/m2
09:44 47.8 °F 47.7 °F 30 in South 0.9 mph 4.9 mph 99% 0 in 81 W/m2
09:49 47.8 °F 47.7 °F 30 in Calm     99% 0 in 78 W/m2
09:54 47.8 °F 47.7 °F 30 in Calm     99% 0 in 70 W/m2
09:59 47.7 °F 47.5 °F 30 in Calm     99% 0 in 85 W/m2
10:04 47.7 °F 47.5 °F 30 in Calm     99% 0 in 92 W/m2
10:09 47.7 °F 47.5 °F 30 in Calm     99% 0 in 104 W/m2
10:14 47.8 °F 47.7 °F 30 in Calm     99% 0 in 127 W/m2
10:19 49.6 °F 49.3 °F 30 in SSE 0.2 mph 4.9 mph 99% 0 in 128 W/m2
10:24 50.2 °F 49.6 °F 30 in SSE 0.7 mph 7.6 mph 99% 0 in 129 W/m2
10:29 50.4 °F 50 °F 30 in Calm   2.5 mph 99% 0 in 136 W/m2
10:34 50.4 °F 49.8 °F 30 in Calm     99% 0 in 142 W/m2
10:39 48.2 °F 48 °F 30 in Calm     99% 0 in 105 W/m2
10:44 48 °F 47.8 °F 30 in Calm     99% 0 in 101 W/m2
10:49 48 °F 47.8 °F 30 in Calm     99% 0 in 86 W/m2
10:54 48 °F 47.8 °F 30 in Calm   2.5 mph 99% 0 in 57 W/m2
10:59 47.7 °F 47.5 °F 30 in Calm     99% 0 in 50 W/m2
11:04 47.5 °F 47.3 °F 30 in Calm     99% 0 in 75 W/m2
11:09 47.5 °F 47.3 °F 30 in Calm     99% 0 in 82 W/m2
11:14 47.5 °F 47.3 °F 30 in Calm     99% 0 in 74 W/m2
11:19 46.6 °F 46.4 °F 30 in Calm     99% 0 in 38 W/m2
11:24 46.4 °F 46.2 °F 30 in Calm     99% 0 in 38 W/m2
11:29 46.2 °F 46 °F 30 in Calm     99% 0 in 31 W/m2
11:34 46 °F 45.9 °F 30 in Calm     99% 0 in 27 W/m2
11:39 46 °F 45.9 °F 30 in Calm     99% 0 in 27 W/m2
11:44 46 °F 45.9 °F 30 in Calm     99% 0 in 27 W/m2
11:49 32 °F 32 °F 30 in Calm     % 0 in W/m2
11:54 32 °F 32 °F 30 in Calm     % 0 in W/m2
11:59 32 °F 32 °F 30 in Calm     % 0 in W/m2
12:04 46.9 °F 46.8 °F 30 in Calm     99% 0 in 105 W/m2
12:09 46.9 °F 46.8 °F 30 in Calm     99% 0 in 108 W/m2
12:14 46.9 °F 46.8 °F 30 in Calm     99% 0 in 108 W/m2
12:19 47.5 °F 47.3 °F 30 in Calm     99% 0 in 95 W/m2
12:24 47.7 °F 47.5 °F 30 in Calm     99% 0 in 88 W/m2
12:29 47.7 °F 47.5 °F 30 in Calm     99% 0 in 71 W/m2
12:34 47.7 °F 47.5 °F 30 in Calm   4.9 mph 99% 0 in 65 W/m2
12:39 47.1 °F 46.9 °F 30 in SSE 1.6 mph 4.9 mph 99% 0 in 92 W/m2
12:44 47.1 °F 46.9 °F 30 in Calm   2.5 mph 99% 0 in 60 W/m2
12:49 47.1 °F 46.9 °F 30 in Calm     99% 0 in 73 W/m2
12:54 47.1 °F 46.9 °F 30 in Calm     99% 0 in 96 W/m2
12:59 47.5 °F 47.5 °F 29.9 in Calm     99% 0 in 99 W/m2
13:04 47.8 °F 47.7 °F 29.9 in Calm     99% 0 in 117 W/m2
13:09 47.8 °F 47.7 °F 29.9 in North 0.2 mph 2.5 mph 99% 0 in 124 W/m2
13:14 47.8 °F 47.8 °F 29.9 in Calm   2.5 mph 99% 0 in 131 W/m2
13:19 48.4 °F 48.4 °F 29.9 in Calm     99% 0 in 130 W/m2
13:24 48.7 °F 48.6 °F 29.9 in Calm     99% 0 in 119 W/m2
13:29 48.7 °F 48.6 °F 29.9 in Calm     99% 0 in 108 W/m2
13:34 48.7 °F 48.6 °F 29.9 in Calm     99% 0 in 97 W/m2
13:39 48.7 °F 48.6 °F 29.9 in Calm     99% 0 in 91 W/m2
13:44 48.7 °F 48.6 °F 29.9 in Calm     99% 0 in 60 W/m2
13:49 48.6 °F 48.4 °F 29.9 in Calm     99% 0 in 75 W/m2
13:54 48.6 °F 48.4 °F 29.9 in Calm     99% 0 in 75 W/m2
13:59 48.6 °F 48.4 °F 29.9 in Calm   2.5 mph 99% 0 in 68 W/m2
14:04 48.4 °F 48.2 °F 29.9 in Calm     99% 0 in 59 W/m2
14:09 48.4 °F 48.2 °F 29.9 in Calm     99% 0 in 81 W/m2
14:14 48.4 °F 48.2 °F 29.9 in Calm     99% 0 in 78 W/m2
14:19 48.4 °F 48.2 °F 29.9 in Calm     99% 0 in 73 W/m2
14:24 48.4 °F 48.2 °F 29.9 in Calm     99% 0 in 73 W/m2
14:29 48.2 °F 48 °F 29.9 in Calm     99% 0 in 58 W/m2
14:34 48 °F 47.8 °F 29.9 in Calm     99% 0 in 52 W/m2
14:39 47.8 °F 47.7 °F 29.9 in Calm     99% 0 in 43 W/m2
14:44 47.7 °F 47.5 °F 29.9 in Calm     99% 0 in 47 W/m2
14:49 47.7 °F 47.5 °F 29.9 in Calm     99% 0 in 50 W/m2
14:54 47.5 °F 47.3 °F 29.9 in Calm     99% 0 in 37 W/m2
14:59 47.5 °F 47.3 °F 29.9 in Calm     99% 0 in 37 W/m2
15:04 47.1 °F 46.9 °F 29.9 in Calm     99% 0 in 40 W/m2
15:09 47.1 °F 46.9 °F 29.9 in Calm     99% 0 in 44 W/m2
15:14 47.1 °F 46.9 °F 29.9 in Calm     99% 0 in 44 W/m2
15:19 47.1 °F 46.9 °F 29.9 in Calm     99% 0 in 57 W/m2
15:24 47.3 °F 47.1 °F 29.9 in Calm     99% 0 in 53 W/m2
15:29 47.3 °F 47.1 °F 29.9 in Calm     99% 0 in 48 W/m2
15:34 47.3 °F 47.1 °F 29.9 in Calm     99% 0 in 37 W/m2
15:39 47.5 °F 47.3 °F 29.9 in Calm     99% 0 in 27 W/m2
15:44 47.7 °F 47.5 °F 29.9 in Calm     99% 0 in 50 W/m2
15:49 47.7 °F 47.5 °F 29.9 in Calm     99% 0 in 48 W/m2
15:54 47.8 °F 47.7 °F 29.9 in Calm     99% 0 in 47 W/m2
15:59 47.8 °F 47.7 °F 29.9 in Calm     99% 0 in 52 W/m2
16:04 47.8 °F 47.7 °F 29.9 in Calm     99% 0 in 47 W/m2
16:09 47.8 °F 47.7 °F 29.9 in Calm     99% 0 in 45 W/m2
16:14 47.8 °F 47.7 °F 29.9 in Calm     99% 0 in 46 W/m2
16:19 48 °F 47.8 °F 29.9 in Calm     99% 0 in 43 W/m2
16:24 48.2 °F 48 °F 29.9 in Calm     99% 0 in 40 W/m2
16:29 48 °F 47.8 °F 29.9 in Calm     99% 0 in 43 W/m2
16:34 48 °F 47.8 °F 29.9 in Calm     99% 0 in 62 W/m2
16:39 48 °F 47.8 °F 29.9 in Calm     99% 0 in 58 W/m2
16:44 48 °F 47.8 °F 29.9 in Calm     99% 0 in 43 W/m2
16:49 48 °F 47.8 °F 29.9 in Calm     99% 0 in 39 W/m2
16:54 48 °F 47.8 °F 29.9 in Calm     99% 0 in 42 W/m2
16:59 48 °F 47.8 °F 29.9 in Calm     99% 0 in 35 W/m2
17:04 47.8 °F 47.7 °F 29.9 in Calm     99% 0 in 31 W/m2
17:09 47.8 °F 47.7 °F 29.9 in Calm     99% 0 in 26 W/m2
17:14 47.8 °F 47.7 °F 29.9 in Calm     99% 0 in 25 W/m2
17:19 47.8 °F 47.7 °F 29.9 in Calm     99% 0 in 21 W/m2
17:24 47.7 °F 47.7 °F 29.9 in Calm     99% 0 in 18 W/m2
17:29 47.7 °F 47.5 °F 29.9 in Calm     99% 0 in 13 W/m2
17:34 47.7 °F 47.5 °F 29.9 in Calm     99% 0 in 6 W/m2
17:39 47.7 °F 47.5 °F 29.9 in Calm     99% 0 in 3 W/m2
17:44 47.3 °F 47.1 °F 29.9 in Calm     99% 0 in 0 W/m2
17:49 47.3 °F 47.1 °F 29.9 in Calm     99% 0 in 0 W/m2
17:54 47.3 °F 47.1 °F 29.9 in Calm     99% 0 in 0 W/m2
17:59 47.3 °F 47.1 °F 29.9 in Calm     99% 0 in 0 W/m2
18:04 47.1 °F 46.9 °F 29.9 in Calm   2.5 mph 99% 0 in 0 W/m2
18:09 47.1 °F 46.9 °F 29.9 in WNW 0.2 mph 4.9 mph 99% 0 in 0 W/m2
18:14 47.1 °F 46.9 °F 29.9 in NNW 0.1 mph 2.5 mph 99% 0 in 0 W/m2
18:19 47.1 °F 46.9 °F 29.9 in West 0.1 mph 2.5 mph 99% 0 in 0 W/m2
18:24 46.8 °F 46.6 °F 29.9 in Calm   2.5 mph 99% 0 in 0 W/m2
18:29 46.8 °F 46.6 °F 29.9 in Calm     99% 0 in 0 W/m2
18:34 46.8 °F 46.4 °F 29.9 in Calm     99% 0 in 0 W/m2
18:39 46.6 °F 46.4 °F 29.9 in Calm     99% 0 in 0 W/m2
18:44 45.9 °F 45.9 °F 29.9 in Calm     99% 0 in 0 W/m2
18:49 45.9 °F 45.7 °F 29.9 in Calm     99% 0 in 0 W/m2
18:54 45.9 °F 45.7 °F 29.9 in Calm     99% 0 in 0 W/m2
18:59 45.7 °F 45.5 °F 29.9 in Calm     99% 0 in 0 W/m2
19:04 45.3 °F 45.1 °F 29.9 in Calm     99% 0 in 0 W/m2
19:09 45.3 °F 45.1 °F 29.9 in Calm     99% 0 in 0 W/m2
19:14 45.3 °F 45.1 °F 29.9 in Calm     99% 0 in 0 W/m2
19:19 45.1 °F 45 °F 29.9 in Calm     99% 0 in 0 W/m2
19:24 44.6 °F 44.4 °F 29.9 in Calm     99% 0 in 0 W/m2
19:29 44.6 °F 44.4 °F 29.9 in Calm     99% 0 in 0 W/m2
19:34 44.6 °F 44.4 °F 29.9 in Calm     99% 0 in 0 W/m2
19:39 44.6 °F 44.4 °F 29.9 in Calm     99% 0 in 0 W/m2
19:44 44.8 °F 44.6 °F 29.9 in Calm     99% 0 in 0 W/m2
19:49 44.8 °F 44.6 °F 29.9 in Calm     99% 0 in 0 W/m2
19:54 45 °F 44.8 °F 29.9 in Calm     99% 0 in 0 W/m2
19:59 45 °F 44.8 °F 29.9 in Calm     99% 0 in 0 W/m2
20:04 45.3 °F 45.1 °F 29.9 in Calm     99% 0 in 0 W/m2
20:09 45.3 °F 45.1 °F 29.9 in Calm     99% 0 in 0 W/m2
20:14 45.1 °F 45 °F 29.9 in Calm     99% 0 in 0 W/m2
20:19 45.1 °F 45 °F 29.9 in Calm     99% 0 in 0 W/m2
20:24 45 °F 44.8 °F 29.9 in Calm     99% 0 in 0 W/m2
20:29 45 °F 44.8 °F 29.9 in Calm     99% 0 in 0 W/m2
20:34 45 °F 44.8 °F 29.9 in Calm   2.5 mph 99% 0 in 0 W/m2
20:39 44.8 °F 44.6 °F 29.9 in Calm     99% 0 in 0 W/m2
20:44 44.8 °F 44.6 °F 29.9 in Calm   2.5 mph 99% 0 in 0 W/m2
20:49 44.8 °F 44.6 °F 29.9 in Calm     99% 0 in 0 W/m2
20:54 45 °F 44.6 °F 29.9 in Calm     99% 0 in 0 W/m2
20:59 45 °F 44.8 °F 29.9 in Calm     99% 0 in 0 W/m2
21:04 44.8 °F 44.6 °F 29.9 in Calm     99% 0 in 0 W/m2
21:09 44.6 °F 44.4 °F 29.9 in Calm     99% 0 in 0 W/m2
21:14 44.6 °F 44.4 °F 29.9 in Calm     99% 0 in 0 W/m2
21:19 44.6 °F 44.4 °F 29.9 in Calm     99% 0 in 0 W/m2
21:24 44.2 °F 44.1 °F 29.9 in Calm     99% 0 in 0 W/m2
21:29 44.2 °F 44.1 °F 29.9 in Calm     99% 0 in 0 W/m2
21:34 44.2 °F 44.1 °F 29.9 in Calm     99% 0 in 0 W/m2
21:39 44.1 °F 43.9 °F 29.9 in Calm     99% 0 in 0 W/m2
21:44 44.4 °F 44.2 °F 29.9 in Calm     99% 0 in 0 W/m2
21:49 44.6 °F 44.4 °F 29.9 in Calm     99% 0 in 0 W/m2
21:54 44.6 °F 44.4 °F 29.9 in Calm     99% 0 in 0 W/m2
21:59 44.6 °F 44.4 °F 29.9 in Calm     99% 0 in 0 W/m2
22:04 44.6 °F 44.4 °F 29.9 in Calm     99% 0 in 0 W/m2
22:09 44.6 °F 44.4 °F 29.9 in Calm     99% 0 in 0 W/m2
22:14 44.8 °F 44.6 °F 29.9 in SSW 0.1 mph 2.5 mph 99% 0 in 0 W/m2
22:19 45 °F 44.8 °F 29.9 in Calm   2.5 mph 99% 0 in 0 W/m2
22:24 45.7 °F 45.5 °F 29.9 in Calm     99% 0 in 0 W/m2
22:29 45.9 °F 45.7 °F 29.9 in Calm     99% 0 in 0 W/m2
22:34 46 °F 45.9 °F 29.9 in Calm     99% 0 in 0 W/m2
22:39 46 °F 45.9 °F 29.9 in Calm     99% 0 in 0 W/m2
22:44 46.6 °F 46.2 °F 29.9 in Calm     98.7% 0 in 0 W/m2
22:49 46.6 °F 46.2 °F 29.9 in Calm     98.7% 0 in 0 W/m2
22:54 46.6 °F 45.9 °F 29.9 in Calm     96.7% 0 in 0 W/m2
22:59 46.8 °F 45.9 °F 29.9 in Calm     96.5% 0 in 0 W/m2
23:04 46.9 °F 45.7 °F 29.9 in Calm     94.9% 0 in 0 W/m2
23:09 47.1 °F 45.1 °F 29.9 in Calm     92.7% 0 in 0 W/m2
23:14 47.1 °F 45 °F 29.9 in Calm     92.1% 0 in 0 W/m2
23:19 47.3 °F 44.8 °F 29.9 in Calm     91% 0 in 0 W/m2
23:24 47.7 °F 45.5 °F 29.9 in Calm     91.8% 0 in 0 W/m2
23:29 47.7 °F 46.8 °F 29.9 in Calm     96.8% 0 in 0 W/m2
23:34 47.3 °F 46.2 °F 29.9 in NNE 0.7 mph 4.9 mph 95.9% 0 in 0 W/m2
23:39 47.1 °F 45.9 °F 29.9 in Calm     95.4% 0 in 0 W/m2
23:44 46.4 °F 45.7 °F 29.9 in Calm     97.1% 0 in 0 W/m2
23:49 46 °F 45.3 °F 29.9 in Calm     97% 0 in 0 W/m2
23:54 46 °F 45.3 °F 29.9 in Calm     97.2% 0 in 0 W/m2
23:59 46 °F 45.5 °F 29.9 in Calm     97.8% 0 in 0 W/m2
Juneau County Weather
Compliments of Weather Underground - 2 mb